createdAt,value
2022-11-30T00:00:00.000Z,48.35
2022-11-30T00:15:00.000Z,50.02
2022-11-30T00:30:00.000Z,51.62
2022-11-30T00:45:00.000Z,51.79
2022-11-30T01:00:00.000Z,52.15
2022-11-30T01:15:00.000Z,52.32
2022-11-30T01:30:00.000Z,53.78
2022-11-30T01:45:00.000Z,53.79
2022-11-30T02:00:00.000Z,54.02
2022-11-30T02:15:00.000Z,54.69
2022-11-30T02:30:00.000Z,56.47
2022-11-30T02:45:00.000Z,56.02
2022-11-30T03:00:00.000Z,55.96
2022-11-30T03:15:00.000Z,62.13
2022-11-30T03:45:00.000Z,47.5
2022-11-30T03:45:00.000Z,50.24
2022-11-30T04:15:00.000Z,48
2022-11-30T04:15:00.000Z,51.15
2022-11-30T04:30:00.000Z,49.92
2022-11-30T04:45:00.000Z,50.24
2022-11-30T05:00:00.000Z,51.53
2022-11-30T05:15:00.000Z,50.92
2022-11-30T05:30:00.000Z,51.71
2022-11-30T05:45:00.000Z,50.96
2022-11-30T06:00:00.000Z,49.96
2022-11-30T06:15:00.000Z,50.86
2022-11-30T06:30:00.000Z,53.96
2022-11-30T06:45:00.000Z,49.8
2022-11-30T07:00:00.000Z,50.58
2022-11-30T07:15:00.000Z,47.82
2022-11-30T07:30:00.000Z,51.46
2022-11-30T07:45:00.000Z,56.06
2022-11-30T08:00:00.000Z,56.84
2022-11-30T08:15:00.000Z,51.11
2022-11-30T08:30:00.000Z,49.96
2022-11-30T08:45:00.000Z,49.78
2022-11-30T09:00:00.000Z,49.54
2022-11-30T09:15:00.000Z,49.05
2022-11-30T09:30:00.000Z,49.22
2022-11-30T09:45:00.000Z,49.64
2022-11-30T10:00:00.000Z,52.11
2022-11-30T10:15:00.000Z,51.62
2022-11-30T10:30:00.000Z,50.94
2022-11-30T10:45:00.000Z,48.67
2022-11-30T11:00:00.000Z,46.72
2022-11-30T11:15:00.000Z,46.44
2022-11-30T11:30:00.000Z,50.65
2022-11-30T11:45:00.000Z,49.29
2022-11-30T12:00:00.000Z,48.48
2022-11-30T12:15:00.000Z,49.33
2022-11-30T12:30:00.000Z,53.98
2022-11-30T12:45:00.000Z,58.53
2022-11-30T13:00:00.000Z,57.62
2022-11-30T13:15:00.000Z,54.28
2022-11-30T13:30:00.000Z,63.02
2022-11-30T13:45:00.000Z,56.28
2022-11-30T14:00:00.000Z,70.93
2022-11-30T14:15:00.000Z,64.27
2022-11-30T14:30:00.000Z,57.28
2022-11-30T14:45:00.000Z,55.61
2022-11-30T15:00:00.000Z,55.35
2022-11-30T15:15:00.000Z,52.66
2022-11-30T15:30:00.000Z,50.78
2022-11-30T15:45:00.000Z,50.31
2022-11-30T16:00:00.000Z,49.51
2022-11-30T16:30:00.000Z,53
2022-11-30T16:30:00.000Z,55.78
2022-11-30T16:45:00.000Z,54.66
2022-11-30T17:00:00.000Z,55.62
2022-11-30T17:15:00.000Z,53.93
2022-11-30T17:30:00.000Z,52.44
2022-11-30T17:45:00.000Z,53.28
2022-11-30T18:00:00.000Z,52.87
2022-11-30T18:15:00.000Z,53.44
2022-11-30T18:30:00.000Z,53.15
2022-11-30T18:45:00.000Z,54.66
2022-11-30T19:00:00.000Z,54.12
2022-11-30T19:15:00.000Z,52.19
2022-11-30T19:30:00.000Z,53.76
2022-11-30T19:45:00.000Z,55.28
2022-11-30T20:00:00.000Z,58.92
2022-11-30T20:15:00.000Z,54.39
2022-11-30T20:30:00.000Z,57.22
2022-11-30T20:45:00.000Z,59.6
2022-11-30T21:00:00.000Z,52.72
2022-11-30T21:15:00.000Z,51.42
2022-11-30T21:30:00.000Z,50.55
2022-11-30T21:45:00.000Z,51.53
2022-11-30T22:00:00.000Z,50.91
2022-11-30T22:15:00.000Z,52.59
2022-11-30T22:30:00.000Z,51.34
2022-11-30T22:45:00.000Z,51.02
2022-11-30T23:00:00.000Z,52.96
2022-11-30T23:15:00.000Z,51.21
2022-11-30T23:30:00.000Z,51.55
2022-11-30T23:45:00.000Z,52.11
